createdAt,value
2022-11-15T11:49:22.173Z,51
2022-11-15T11:50:27.600Z,53.5
2022-11-15T11:51:33.728Z,56
2022-11-15T11:52:39.737Z,57
2022-11-15T11:53:45.951Z,56.5
2022-11-15T11:54:52.080Z,56.5
2022-11-15T11:55:58.265Z,57
2022-11-15T11:57:04.432Z,57
2022-11-15T11:58:10.660Z,57.5
2022-11-15T11:59:16.785Z,57.5
2022-11-15T12:00:23.097Z,58
2022-11-15T12:01:29.130Z,59
2022-11-15T12:02:35.383Z,60
2022-11-15T12:03:41.479Z,60.5
2022-11-15T12:04:47.605Z,62
2022-11-15T12:05:53.889Z,62.5
2022-11-15T12:07:00.090Z,62.5
2022-11-15T12:08:06.233Z,61.5
2022-11-15T12:09:12.479Z,62
2022-11-15T12:10:18.631Z,63
2022-11-15T12:11:23.777Z,63
2022-11-15T12:12:29.004Z,63
2022-11-15T12:13:35.120Z,62.5
2022-11-15T12:14:41.215Z,62.5
2022-11-15T12:15:47.234Z,63
2022-11-15T12:16:53.491Z,63.5
2022-11-15T12:17:59.668Z,63
2022-11-15T12:19:05.799Z,62
2022-11-15T12:21:17.906Z,63
2022-11-15T12:22:24.011Z,63.5
2022-11-15T12:23:30.169Z,63.5
2022-11-15T12:25:42.604Z,64
2022-11-15T12:26:47.776Z,64
2022-11-15T12:27:52.894Z,64
2022-11-15T12:28:59.062Z,64
2022-11-15T12:30:04.993Z,62.5
2022-11-15T12:31:11.151Z,61.5
2022-11-15T12:32:17.259Z,61.5
2022-11-15T12:33:23.415Z,61.5
2022-11-15T12:34:29.543Z,62.5
2022-11-15T12:35:35.737Z,62.5
2022-11-15T12:36:41.884Z,62.5
2022-11-15T12:37:48.059Z,63
2022-11-15T12:38:54.306Z,64
2022-11-15T12:40:00.433Z,65
2022-11-15T12:41:06.379Z,65.5
2022-11-15T12:42:12.516Z,65.5
2022-11-15T12:43:17.680Z,65.5
2022-11-15T12:44:23.828Z,65.5
2022-11-15T12:45:29.979Z,65.5
2022-11-15T12:46:36.105Z,66
2022-11-15T12:47:42.255Z,65.5
2022-11-15T12:48:48.509Z,65.5
2022-11-15T12:49:54.690Z,65
2022-11-15T13:01:06.384Z,63.5
2022-11-15T13:02:12.532Z,66
2022-11-15T13:03:18.685Z,67
2022-11-15T13:04:24.858Z,67.5
2022-11-15T13:05:31.025Z,68
2022-11-15T13:06:37.177Z,68
2022-11-15T13:07:43.376Z,68.5
2022-11-15T13:08:49.498Z,69
2022-11-15T13:09:55.836Z,69.5
2022-11-15T13:11:01.967Z,70
2022-11-15T13:12:08.061Z,69.5
2022-11-15T13:13:14.320Z,69.5
2022-11-15T13:14:20.265Z,69.5
2022-11-15T13:15:26.430Z,71
2022-11-15T13:16:32.594Z,71.5
2022-11-15T13:17:38.758Z,71.5
2022-11-15T13:18:44.935Z,72.5
2022-11-15T13:19:51.099Z,73
2022-11-15T13:20:57.285Z,73
2022-11-15T13:22:03.441Z,73
2022-11-15T13:23:08.618Z,72.5
2022-11-15T13:24:13.777Z,72
2022-11-15T13:25:19.867Z,71.5
2022-11-15T13:26:26.095Z,71.5
2022-11-15T13:27:32.103Z,70.5
2022-11-15T13:28:38.199Z,70
2022-11-15T13:29:44.319Z,70.5
2022-11-15T13:30:50.433Z,71.5
2022-11-15T13:31:56.642Z,71
2022-11-15T13:33:02.636Z,71.5
2022-11-15T13:34:08.761Z,71.5
2022-11-15T13:35:14.875Z,71.5
2022-11-15T13:36:20.980Z,71
2022-11-15T13:37:27.091Z,71
2022-11-15T13:38:32.223Z,71
2022-11-15T13:39:38.325Z,71
2022-11-15T13:40:44.441Z,71
2022-11-15T13:41:50.533Z,71
2022-11-15T13:42:56.676Z,72.5
2022-11-15T13:44:02.829Z,72.5
2022-11-15T13:45:08.879Z,73.5
2022-11-15T13:46:15.007Z,74
2022-11-15T13:47:21.106Z,74
2022-11-15T13:48:27.215Z,74
2022-11-15T13:49:33.358Z,74.5
2022-11-15T13:50:39.458Z,73.5
2022-11-15T13:51:45.569Z,74
2022-11-15T13:52:50.727Z,73.5
2022-11-15T13:53:56.839Z,73.5
2022-11-15T13:55:03.051Z,74
2022-11-15T13:56:09.127Z,74.5
2022-11-15T13:57:15.359Z,74
2022-11-15T13:58:21.418Z,73
2022-11-15T13:59:27.401Z,73.5
2022-11-15T14:00:33.536Z,73.5
2022-11-15T14:01:39.635Z,74.5
2022-11-15T14:02:45.752Z,75
2022-11-15T14:03:51.868Z,73.5
2022-11-15T14:04:58.006Z,73.5
2022-11-15T14:06:04.115Z,74.5
2022-11-15T14:07:09.249Z,74
2022-11-15T14:08:15.393Z,74
2022-11-15T14:09:21.497Z,74
2022-11-15T14:10:27.606Z,74.5
2022-11-15T14:11:33.738Z,73.5
2022-11-15T14:12:39.863Z,72
2022-11-15T14:13:45.993Z,72.5
2022-11-15T14:14:52.077Z,73
2022-11-15T14:15:58.249Z,73
2022-11-15T14:17:04.476Z,73
2022-11-15T14:18:10.628Z,74
2022-11-15T14:19:16.631Z,73.5
2022-11-15T14:20:22.668Z,73.5
2022-11-15T14:21:27.798Z,74
2022-11-15T14:22:33.945Z,73.5
2022-11-15T14:23:40.042Z,74
2022-11-15T14:24:46.157Z,74.5
2022-11-15T14:25:52.293Z,74.5
2022-11-15T14:26:58.407Z,74
2022-11-15T14:28:04.524Z,74.5
2022-11-15T14:29:10.656Z,74
2022-11-15T14:30:16.903Z,74
2022-11-15T14:31:22.913Z,74
2022-11-15T14:32:29.091Z,74
2022-11-15T14:33:35.183Z,74
2022-11-15T14:34:41.280Z,73.5
2022-11-15T14:36:52.538Z,74
2022-11-15T14:37:58.666Z,74.5
2022-11-15T14:39:04.779Z,75
2022-11-15T14:40:10.917Z,75.5
2022-11-15T14:41:17.065Z,75.5
2022-11-15T14:43:29.304Z,77
2022-11-15T14:44:35.456Z,77.5
2022-11-15T14:45:41.554Z,78
2022-11-15T14:46:47.683Z,77.5
2022-11-15T14:47:53.816Z,78
2022-11-15T14:48:59.985Z,77.5
2022-11-15T14:50:06.082Z,77.5
2022-11-15T14:51:12.292Z,77.5
2022-11-15T14:52:18.595Z,77.5
2022-11-15T14:53:24.490Z,76.5
2022-11-15T14:54:30.623Z,77
2022-11-15T14:55:36.776Z,76
2022-11-15T14:56:42.894Z,75.5
2022-11-15T14:57:49.031Z,76
2022-11-15T14:58:55.170Z,75.5
2022-11-15T15:00:01.313Z,76.5
2022-11-15T15:01:07.441Z,75.5
2022-11-15T15:02:13.601Z,75.5
2022-11-15T15:03:19.719Z,75
2022-11-15T15:04:25.841Z,76
2022-11-15T15:05:31.983Z,76
2022-11-15T15:06:38.134Z,76.5
2022-11-15T15:07:44.245Z,77
2022-11-15T15:08:49.427Z,77.5
